createdAt,value
2022-09-09T00:01:07.622Z,1.60
2022-09-09T00:02:28.758Z,1.35
2022-09-09T00:03:48.193Z,1.58
2022-09-09T00:05:38.262Z,1.50
2022-09-09T00:06:57.574Z,1.60
2022-09-09T00:08:04.879Z,1.45
2022-09-09T00:09:13.930Z,1.58
2022-09-09T00:10:27.239Z,1.67
2022-09-09T00:11:45.010Z,1.60
2022-09-09T00:13:18.017Z,1.58
2022-09-09T00:14:44.180Z,1.50
2022-09-09T00:16:20.956Z,1.65
2022-09-09T00:17:32.563Z,1.70
2022-09-09T00:18:55.810Z,1.50
2022-09-09T00:20:20.505Z,1.60
2022-09-09T00:21:30.976Z,1.58
2022-09-09T00:22:33.557Z,1.50
2022-09-09T00:23:38.949Z,1.73
2022-09-09T00:24:43.581Z,1.38
2022-09-09T00:25:57.577Z,2.08
2022-09-09T00:27:08.045Z,1.38
2022-09-09T00:28:19.179Z,1.90
2022-09-09T00:29:57.025Z,1.80
2022-09-09T00:31:08.923Z,1.45
2022-09-09T00:32:17.806Z,1.40
2022-09-09T00:33:23.624Z,1.38
2022-09-09T00:34:28.965Z,1.60
2022-09-09T00:35:35.086Z,1.70
2022-09-09T00:36:38.833Z,1.60
2022-09-09T00:37:43.014Z,1.55
2022-09-09T00:38:50.298Z,1.30
2022-09-09T00:39:55.890Z,1.75
2022-09-09T00:41:11.674Z,1.20
2022-09-09T00:42:31.311Z,1.55
2022-09-09T00:43:38.164Z,1.40
2022-09-09T00:44:44.415Z,1.58
2022-09-09T00:46:13.542Z,1.67
2022-09-09T00:47:45.728Z,1.85
2022-09-09T00:48:51.953Z,1.55
2022-09-09T00:50:03.061Z,1.60
2022-09-09T00:51:44.584Z,1.65
2022-09-09T00:53:08.235Z,1.70
2022-09-09T00:54:46.196Z,1.42
2022-09-09T00:56:10.699Z,1.52
2022-09-09T00:57:29.196Z,1.55
2022-09-09T00:58:30.890Z,1.40
2022-09-09T01:00:10.182Z,1.67
2022-09-09T01:01:14.124Z,1.75
2022-09-09T01:02:29.855Z,1.52
2022-09-09T01:03:43.344Z,1.67
2022-09-09T01:04:45.412Z,1.50
2022-09-09T01:05:55.906Z,1.65
2022-09-09T01:07:18.579Z,1.70
2022-09-09T01:08:32.460Z,1.70
2022-09-09T01:09:50.614Z,1.30
2022-09-09T01:10:55.226Z,1.60
2022-09-09T01:12:06.073Z,1.38
2022-09-09T01:13:17.685Z,1.60
2022-09-09T01:14:26.711Z,1.50
2022-09-09T01:15:32.059Z,1.50
2022-09-09T01:16:33.958Z,1.42
2022-09-09T01:17:59.355Z,1.30
2022-09-09T01:19:02.911Z,1.70
2022-09-09T01:20:23.218Z,1.60
2022-09-09T01:21:31.251Z,1.90
2022-09-09T01:23:01.614Z,1.60
2022-09-09T01:24:06.982Z,1.55
2022-09-09T01:25:20.554Z,1.55
2022-09-09T01:26:33.852Z,1.52
2022-09-09T01:27:36.660Z,1.50
2022-09-09T01:28:40.220Z,1.50
2022-09-09T01:29:42.144Z,1.60
2022-09-09T01:30:44.125Z,2.25
2022-09-09T01:32:01.576Z,1.77
2022-09-09T01:33:04.239Z,1.58
2022-09-09T01:34:14.934Z,1.70
2022-09-09T01:35:31.318Z,1.65
2022-09-09T01:36:39.018Z,1.40
2022-09-09T01:37:41.091Z,1.92
2022-09-09T01:38:42.847Z,1.83
2022-09-09T01:39:46.093Z,1.40
2022-09-09T01:40:48.178Z,2.00
2022-09-09T01:41:49.927Z,1.70
2022-09-09T01:42:52.103Z,1.40
2022-09-09T01:43:56.186Z,1.50
2022-09-09T01:44:58.062Z,1.55
2022-09-09T01:46:02.658Z,2.20
2022-09-09T01:47:04.694Z,1.60
2022-09-09T01:48:06.353Z,1.60
2022-09-09T01:49:09.389Z,1.60
2022-09-09T01:50:13.966Z,1.50
2022-09-09T01:51:15.630Z,1.55
2022-09-09T01:52:17.374Z,1.65
2022-09-09T01:53:21.267Z,1.60
2022-09-09T01:54:26.301Z,1.60
2022-09-09T01:55:36.460Z,1.50
2022-09-09T01:56:52.023Z,1.88
2022-09-09T01:58:16.802Z,1.70
2022-09-09T01:59:50.886Z,1.80
2022-09-09T02:01:12.826Z,1.65
2022-09-09T02:02:34.384Z,1.88
2022-09-09T02:03:36.745Z,1.55
2022-09-09T02:05:25.542Z,1.98
2022-09-09T02:06:34.757Z,1.52
2022-09-09T02:07:42.794Z,1.65
2022-09-09T02:08:54.021Z,2.10
2022-09-09T02:10:12.170Z,1.80
2022-09-09T02:11:18.818Z,1.58
2022-09-09T02:12:24.874Z,1.80
2022-09-09T02:13:26.865Z,1.55
2022-09-09T02:14:36.090Z,1.92
2022-09-09T02:15:37.682Z,1.70
2022-09-09T02:16:45.142Z,1.90
2022-09-09T02:17:49.721Z,1.80
2022-09-09T02:18:54.298Z,1.90
2022-09-09T02:20:09.213Z,1.80
2022-09-09T02:21:12.701Z,2.03
2022-09-09T02:22:15.631Z,1.80
2022-09-09T02:23:18.881Z,1.42
2022-09-09T02:24:21.003Z,1.83
2022-09-09T02:25:26.247Z,1.90
2022-09-09T02:26:28.683Z,1.52
2022-09-09T02:27:30.881Z,1.70
2022-09-09T02:28:35.538Z,1.70
2022-09-09T02:29:43.493Z,1.80
2022-09-09T02:30:48.202Z,2.10
2022-09-09T02:31:52.262Z,1.80
2022-09-09T02:33:00.157Z,1.95
2022-09-09T02:34:04.516Z,1.63
2022-09-09T02:35:12.869Z,1.92
2022-09-09T02:36:17.147Z,1.75
2022-09-09T02:37:26.135Z,1.63
2022-09-09T02:38:30.751Z,1.35
2022-09-09T02:39:32.473Z,1.60
2022-09-09T02:40:34.389Z,1.70
2022-09-09T02:41:39.770Z,1.52
2022-09-09T02:42:43.338Z,1.98
2022-09-09T02:43:45.079Z,1.67
2022-09-09T02:44:47.058Z,1.55
2022-09-09T02:46:09.937Z,1.70
2022-09-09T02:47:14.427Z,1.95
2022-09-09T02:48:25.144Z,1.70
2022-09-09T02:49:41.745Z,1.67
2022-09-09T02:50:54.746Z,1.42
2022-09-09T02:52:07.450Z,1.80
2022-09-09T02:53:19.081Z,1.52
2022-09-09T02:54:33.324Z,1.77
2022-09-09T02:55:49.864Z,1.77
2022-09-09T02:56:57.363Z,1.60
2022-09-09T02:58:00.783Z,1.40
2022-09-09T02:59:05.481Z,1.98
2022-09-09T03:00:07.857Z,1.33
2022-09-09T03:01:09.943Z,1.60
2022-09-09T03:02:12.241Z,1.67
2022-09-09T03:03:14.423Z,1.70
2022-09-09T03:04:16.219Z,1.50
2022-09-09T03:05:18.260Z,1.50
2022-09-09T03:06:19.990Z,1.60
2022-09-09T03:07:22.554Z,1.80
2022-09-09T03:08:24.577Z,2.00
2022-09-09T03:09:27.002Z,1.90
2022-09-09T03:10:28.759Z,2.00
2022-09-09T03:11:30.448Z,1.40
2022-09-09T03:12:32.250Z,1.67
2022-09-09T03:13:34.735Z,1.77
2022-09-09T03:14:36.433Z,1.88
2022-09-09T03:15:38.253Z,1.60
2022-09-09T03:16:39.929Z,1.88
2022-09-09T03:17:42.096Z,1.80
2022-09-09T03:18:46.015Z,2.10
2022-09-09T03:19:48.205Z,2.00
2022-09-09T03:20:49.888Z,1.90
2022-09-09T03:21:52.005Z,1.70
2022-09-09T03:22:57.663Z,1.80
2022-09-09T03:23:59.315Z,1.50
2022-09-09T03:25:01.231Z,1.77
2022-09-09T03:26:03.191Z,1.77
2022-09-09T03:27:05.128Z,1.80
2022-09-09T03:28:07.253Z,1.70
2022-09-09T03:29:09.088Z,1.75
2022-09-09T03:30:11.736Z,1.90
2022-09-09T03:31:13.487Z,1.70
2022-09-09T03:32:18.434Z,1.67
2022-09-09T03:33:20.099Z,1.60
2022-09-09T03:34:21.807Z,1.77
2022-09-09T03:35:23.498Z,1.60
2022-09-09T03:36:27.314Z,1.63
2022-09-09T03:37:28.975Z,1.55
2022-09-09T03:38:30.658Z,1.65
2022-09-09T03:39:32.493Z,1.58
2022-09-09T03:40:34.309Z,1.90
2022-09-09T03:41:36.064Z,2.33
2022-09-09T03:42:38.780Z,1.58
2022-09-09T03:43:40.520Z,1.75
2022-09-09T03:44:42.954Z,1.80
2022-09-09T03:45:50.406Z,1.55
2022-09-09T03:46:52.132Z,1.58
2022-09-09T03:47:53.771Z,2.05
2022-09-09T03:48:55.510Z,1.60
2022-09-09T03:49:57.237Z,2.10
2022-09-09T03:51:01.528Z,1.60
2022-09-09T03:52:03.516Z,1.63
2022-09-09T03:53:06.950Z,1.63
2022-09-09T03:54:11.114Z,1.77
2022-09-09T03:55:12.791Z,1.70
2022-09-09T03:56:15.333Z,1.92
2022-09-09T03:57:17.803Z,1.92
2022-09-09T03:58:20.184Z,2.08
2022-09-09T03:59:22.282Z,1.73
2022-09-09T04:00:23.925Z,1.65
2022-09-09T04:01:25.680Z,2.00
2022-09-09T04:02:27.440Z,2.00
2022-09-09T04:03:30.215Z,1.55
2022-09-09T04:04:32.004Z,1.75
2022-09-09T04:05:35.015Z,1.83
2022-09-09T04:06:36.749Z,1.88
2022-09-09T04:07:38.407Z,2.08
2022-09-09T04:08:41.160Z,1.75
2022-09-09T04:09:42.822Z,1.95
2022-09-09T04:10:47.707Z,1.88
2022-09-09T04:11:50.418Z,1.60
2022-09-09T04:12:52.356Z,1.95
2022-09-09T04:13:54.071Z,1.80
2022-09-09T04:14:55.711Z,2.55
2022-09-09T04:15:59.717Z,1.75
2022-09-09T04:17:01.461Z,1.50
2022-09-09T04:18:03.217Z,1.52
2022-09-09T04:19:05.648Z,1.50
2022-09-09T04:20:12.381Z,2.03
2022-09-09T04:21:14.162Z,1.90
2022-09-09T04:22:16.071Z,1.60
2022-09-09T04:23:21.813Z,1.80
2022-09-09T04:24:23.581Z,1.98
2022-09-09T04:25:25.281Z,1.80
2022-09-09T04:26:26.946Z,1.80
2022-09-09T04:27:28.627Z,1.80
2022-09-09T04:28:33.009Z,1.70
2022-09-09T04:29:34.824Z,1.60
2022-09-09T04:30:36.809Z,1.92
2022-09-09T04:31:42.849Z,1.60
2022-09-09T04:32:44.771Z,1.77
2022-09-09T04:33:47.482Z,1.70
2022-09-09T04:34:49.268Z,1.90
2022-09-09T04:35:51.544Z,2.30
2022-09-09T04:36:53.192Z,2.10
2022-09-09T04:37:54.831Z,1.75
2022-09-09T04:38:56.505Z,1.95
2022-09-09T04:39:58.403Z,2.10
2022-09-09T04:41:00.301Z,1.90
2022-09-09T04:42:02.963Z,1.92
2022-09-09T04:43:10.446Z,1.90
2022-09-09T04:44:14.160Z,2.10
2022-09-09T04:45:15.974Z,9.30
2022-09-09T04:46:20.383Z,3.70
2022-09-09T04:47:22.211Z,1.90
2022-09-09T04:48:25.394Z,1.85
2022-09-09T04:49:27.080Z,2.22
2022-09-09T04:50:29.524Z,2.38
2022-09-09T04:51:32.149Z,2.30
2022-09-09T04:52:36.460Z,2.03
2022-09-09T04:53:39.050Z,2.20
2022-09-09T04:54:41.336Z,2.70
2022-09-09T04:55:43.005Z,2.53
2022-09-09T04:56:45.309Z,2.20
2022-09-09T04:57:47.203Z,2.15
2022-09-09T04:58:49.656Z,1.95
2022-09-09T04:59:51.322Z,2.10
2022-09-09T05:00:53.062Z,1.65
2022-09-09T05:01:56.218Z,1.95
2022-09-09T05:02:58.089Z,2.30
2022-09-09T05:03:59.795Z,2.33
2022-09-09T05:05:01.653Z,2.13
2022-09-09T05:06:09.173Z,1.80
2022-09-09T05:07:11.371Z,2.10
2022-09-09T05:08:13.069Z,2.10
2022-09-09T05:09:14.783Z,1.88
2022-09-09T05:10:19.042Z,1.85
2022-09-09T05:11:25.639Z,2.00
2022-09-09T05:12:27.995Z,2.00
2022-09-09T05:13:32.026Z,2.30
2022-09-09T05:14:33.795Z,1.73
2022-09-09T05:15:36.487Z,2.00
2022-09-09T05:16:38.180Z,2.20
2022-09-09T05:17:39.910Z,1.90
2022-09-09T05:18:43.950Z,1.98
2022-09-09T05:19:45.650Z,2.05
2022-09-09T05:20:47.329Z,2.13
2022-09-09T05:21:49.165Z,2.20
2022-09-09T05:22:57.385Z,2.47
2022-09-09T05:23:59.260Z,2.30
2022-09-09T05:25:01.334Z,2.00
2022-09-09T05:26:03.703Z,2.40
2022-09-09T05:27:07.061Z,2.10
2022-09-09T05:28:08.922Z,2.53
2022-09-09T05:29:10.600Z,2.53
2022-09-09T05:30:12.699Z,2.92
2022-09-09T05:31:16.320Z,2.80
2022-09-09T05:32:18.072Z,2.70
2022-09-09T05:33:19.750Z,2.50
2022-09-09T05:34:21.742Z,2.50
2022-09-09T05:35:24.077Z,2.60
2022-09-09T05:36:26.009Z,2.47
2022-09-09T05:37:27.664Z,2.42
2022-09-09T05:38:30.055Z,2.28
2022-09-09T05:39:31.838Z,2.53
2022-09-09T05:40:33.534Z,2.20
2022-09-09T05:41:36.486Z,2.20
2022-09-09T05:42:38.369Z,2.40
2022-09-09T05:43:40.445Z,3.00
2022-09-09T05:44:43.299Z,2.30
2022-09-09T05:45:45.273Z,2.50
2022-09-09T05:46:46.965Z,2.22
2022-09-09T05:47:54.401Z,2.20
2022-09-09T05:48:56.120Z,2.00
2022-09-09T05:49:57.876Z,2.30
2022-09-09T05:51:00.721Z,2.30
2022-09-09T05:52:04.892Z,2.40
2022-09-09T05:53:06.563Z,2.40
2022-09-09T05:54:08.299Z,2.40
2022-09-09T05:55:10.012Z,3.00
2022-09-09T05:56:15.488Z,2.50
2022-09-09T05:57:17.272Z,2.58
2022-09-09T05:58:19.195Z,2.25
2022-09-09T05:59:21.062Z,2.40
2022-09-09T06:00:22.740Z,2.25
2022-09-09T06:01:30.710Z,2.47
2022-09-09T06:02:34.083Z,2.50
2022-09-09T06:03:37.067Z,2.35
2022-09-09T06:04:39.596Z,2.60
2022-09-09T06:05:41.239Z,2.22
2022-09-09T06:06:43.029Z,2.40
2022-09-09T06:07:45.723Z,2.65
2022-09-09T06:08:47.723Z,2.60
2022-09-09T06:09:49.445Z,2.42
2022-09-09T06:10:51.129Z,2.30
2022-09-09T06:11:52.814Z,2.17
2022-09-09T06:12:54.700Z,2.00
2022-09-09T06:13:56.387Z,1.88
2022-09-09T06:14:58.022Z,2.00
2022-09-09T06:16:00.749Z,2.38
2022-09-09T06:17:03.311Z,2.13
2022-09-09T06:18:05.096Z,2.00
2022-09-09T06:19:07.453Z,2.00
2022-09-09T06:20:10.253Z,3.53
2022-09-09T06:21:19.185Z,4.10
2022-09-09T06:22:20.951Z,2.78
2022-09-09T06:23:22.803Z,2.47
2022-09-09T06:24:24.493Z,2.08
2022-09-09T06:25:26.144Z,2.45
2022-09-09T06:26:29.379Z,2.28
2022-09-09T06:27:31.076Z,2.30
2022-09-09T06:28:37.421Z,2.40
2022-09-09T06:29:39.163Z,1.92
2022-09-09T06:30:41.491Z,2.15
2022-09-09T06:31:43.294Z,2.03
2022-09-09T06:32:45.401Z,2.20
2022-09-09T06:33:47.208Z,2.20
2022-09-09T06:34:50.217Z,2.30
2022-09-09T06:35:55.997Z,2.20
2022-09-09T06:37:00.458Z,2.42
2022-09-09T06:38:02.116Z,2.10
2022-09-09T06:39:04.170Z,1.80
2022-09-09T06:40:06.456Z,2.03
2022-09-09T06:41:09.971Z,2.17
2022-09-09T06:42:11.624Z,2.13
2022-09-09T06:43:13.391Z,1.50
2022-09-09T06:44:16.360Z,2.17
2022-09-09T06:45:18.610Z,2.75
2022-09-09T06:46:28.724Z,1.80
2022-09-09T06:47:31.052Z,2.30
2022-09-09T06:48:33.685Z,1.92
2022-09-09T06:49:36.016Z,1.80
2022-09-09T06:50:37.725Z,2.03
2022-09-09T06:51:43.812Z,1.90
2022-09-09T06:52:48.650Z,2.20
2022-09-09T06:53:59.254Z,2.70
2022-09-09T06:55:00.935Z,2.50
2022-09-09T06:56:16.010Z,1.67
2022-09-09T06:58:45.009Z,1.85
2022-09-09T06:59:46.702Z,1.73
2022-09-09T07:00:48.946Z,1.80
2022-09-09T07:01:55.854Z,1.95
2022-09-09T07:02:58.043Z,1.80
2022-09-09T07:04:00.923Z,2.05
2022-09-09T07:05:02.753Z,1.60
2022-09-09T07:06:04.927Z,1.85
2022-09-09T07:07:06.850Z,1.98
2022-09-09T07:08:08.571Z,2.08
2022-09-09T07:09:12.617Z,2.47
2022-09-09T07:10:14.362Z,1.83
2022-09-09T07:11:16.046Z,1.63
2022-09-09T07:12:17.771Z,1.98
2022-09-09T07:13:25.257Z,1.27
2022-09-09T07:14:27.330Z,1.20
2022-09-09T07:15:29.219Z,1.30
2022-09-09T07:16:32.727Z,1.80
2022-09-09T07:17:34.513Z,1.27
2022-09-09T07:18:36.437Z,1.70
2022-09-09T07:19:38.143Z,1.80
2022-09-09T07:20:39.891Z,1.67
2022-09-09T07:21:41.900Z,1.40
2022-09-09T07:22:43.658Z,2.17
2022-09-09T07:23:45.567Z,2.13
2022-09-09T07:24:47.524Z,1.75
2022-09-09T07:25:49.287Z,1.70
2022-09-09T07:26:51.029Z,1.58
2022-09-09T07:27:52.728Z,1.42
2022-09-09T07:28:54.697Z,1.90
2022-09-09T07:29:56.421Z,1.67
2022-09-09T07:31:00.631Z,2.10
2022-09-09T07:32:03.539Z,1.92
2022-09-09T07:33:05.226Z,1.90
2022-09-09T07:34:07.985Z,2.30
2022-09-09T07:35:09.770Z,1.75
2022-09-09T07:36:16.085Z,1.80
2022-09-09T07:37:18.459Z,1.63
2022-09-09T07:38:21.310Z,1.83
2022-09-09T07:39:23.034Z,2.05
2022-09-09T07:40:25.086Z,1.70
2022-09-09T07:41:29.534Z,1.80
2022-09-09T07:42:31.836Z,1.92
2022-09-09T07:43:34.519Z,1.52
2022-09-09T07:44:36.514Z,1.75
2022-09-09T07:45:38.707Z,1.70
2022-09-09T07:46:42.025Z,2.00
2022-09-09T07:47:43.794Z,1.83
2022-09-09T07:48:47.481Z,1.88
2022-09-09T07:49:50.766Z,2.25
2022-09-09T07:50:52.456Z,1.98
2022-09-09T07:51:54.153Z,1.80
2022-09-09T07:52:57.595Z,1.83
2022-09-09T07:54:02.885Z,1.98
2022-09-09T07:55:05.534Z,1.70
2022-09-09T07:56:13.475Z,1.73
2022-09-09T07:57:16.483Z,1.60
2022-09-09T07:58:18.159Z,1.85
2022-09-09T07:59:20.366Z,1.90
2022-09-09T08:00:23.093Z,1.70
2022-09-09T08:01:31.264Z,1.73
2022-09-09T08:02:32.953Z,1.73
2022-09-09T08:03:34.695Z,1.70
2022-09-09T08:04:36.435Z,1.80
2022-09-09T08:05:40.543Z,1.80
2022-09-09T08:06:48.625Z,2.00
2022-09-09T08:07:50.491Z,1.55
2022-09-09T08:08:52.836Z,1.25
2022-09-09T08:09:56.296Z,1.30
2022-09-09T08:11:08.490Z,1.20
2022-09-09T08:12:10.395Z,1.30
2022-09-09T08:13:18.456Z,1.30
2022-09-09T08:14:20.676Z,1.08
2022-09-09T08:15:22.341Z,1.25
2022-09-09T08:16:29.656Z,1.30
2022-09-09T08:17:31.393Z,1.17
2022-09-09T08:18:33.282Z,1.20
2022-09-09T08:19:36.768Z,1.00
2022-09-09T08:20:38.901Z,0.98
2022-09-09T08:21:41.790Z,1.10
2022-09-09T08:22:44.611Z,1.10
2022-09-09T08:23:47.987Z,1.10
2022-09-09T08:24:49.721Z,1.27
2022-09-09T08:25:51.398Z,1.17
2022-09-09T08:26:54.594Z,1.17
2022-09-09T08:27:56.872Z,1.17
2022-09-09T08:29:00.187Z,1.08
2022-09-09T08:30:01.884Z,1.00
2022-09-09T08:31:16.416Z,1.20
2022-09-09T08:32:19.926Z,1.35
2022-09-09T08:33:21.627Z,1.40
2022-09-09T08:34:24.009Z,1.45
2022-09-09T08:35:25.707Z,1.20
2022-09-09T08:36:29.759Z,1.23
2022-09-09T08:37:32.863Z,1.35
2022-09-09T08:38:34.745Z,1.00
2022-09-09T08:39:37.367Z,1.10
2022-09-09T08:40:45.159Z,0.95
2022-09-09T08:42:12.781Z,1.00
2022-09-09T08:43:15.863Z,1.08
2022-09-09T08:44:35.564Z,1.27
2022-09-09T08:45:58.720Z,1.30
2022-09-09T08:47:33.093Z,1.20
2022-09-09T08:48:39.216Z,1.20
2022-09-09T08:49:57.026Z,1.10
2022-09-09T08:51:02.913Z,1.20
2022-09-09T08:52:14.196Z,0.90
2022-09-09T08:53:23.631Z,1.10
2022-09-09T08:54:51.110Z,1.17
2022-09-09T08:56:00.311Z,0.98
2022-09-09T08:57:02.097Z,0.93
2022-09-09T08:58:22.221Z,1.05
2022-09-09T08:59:24.275Z,1.17
2022-09-09T09:00:33.951Z,0.88
2022-09-09T09:01:51.354Z,1.20
2022-09-09T09:03:23.799Z,0.80
2022-09-09T09:04:44.884Z,0.98
2022-09-09T09:06:06.338Z,1.00
2022-09-09T09:07:32.718Z,1.40
2022-09-09T09:08:57.404Z,1.17
2022-09-09T09:09:59.700Z,1.33
2022-09-09T09:11:02.542Z,1.02
2022-09-09T09:12:19.869Z,1.10
2022-09-09T09:13:29.069Z,0.95
2022-09-09T09:14:35.072Z,1.40
2022-09-09T09:15:41.883Z,1.10
2022-09-09T09:16:53.670Z,1.20
2022-09-09T09:17:55.612Z,1.52
2022-09-09T09:18:58.120Z,1.20
2022-09-09T09:20:00.682Z,1.02
2022-09-09T09:21:08.730Z,1.10
2022-09-09T09:22:26.326Z,1.02
2022-09-09T09:23:41.435Z,1.20
2022-09-09T09:25:00.223Z,0.93
2022-09-09T09:26:02.381Z,1.00
2022-09-09T09:27:16.046Z,1.08
2022-09-09T09:28:23.768Z,0.90
2022-09-09T09:29:27.019Z,1.15
2022-09-09T09:30:39.713Z,1.40
2022-09-09T09:31:46.728Z,1.20
2022-09-09T09:33:01.467Z,0.82
2022-09-09T09:34:03.470Z,1.00
2022-09-09T09:35:12.577Z,0.88
2022-09-09T09:36:17.916Z,1.27
2022-09-09T09:37:30.519Z,3.08
2022-09-09T09:41:03.509Z,1.02
2022-09-09T09:42:15.030Z,1.33
2022-09-09T09:43:24.674Z,1.02
2022-09-09T09:44:28.372Z,1.17
2022-09-09T09:45:55.417Z,0.88
2022-09-09T09:47:19.030Z,1.17
2022-09-09T09:48:20.780Z,0.80
2022-09-09T09:49:22.536Z,1.10
2022-09-09T09:50:24.228Z,1.70
2022-09-09T09:51:27.159Z,1.00
2022-09-09T09:52:31.929Z,1.10
2022-09-09T09:53:36.894Z,0.90
2022-09-09T09:54:42.520Z,0.70
2022-09-09T09:55:55.432Z,1.25
2022-09-09T09:56:58.714Z,0.80
2022-09-09T09:58:07.875Z,1.13
2022-09-09T09:59:23.711Z,0.85
2022-09-09T10:00:32.095Z,1.00
2022-09-09T10:01:36.314Z,0.98
2022-09-09T10:02:41.669Z,1.08
2022-09-09T10:03:56.119Z,0.77
2022-09-09T10:05:13.471Z,0.80
2022-09-09T10:06:15.181Z,1.05
2022-09-09T10:07:22.073Z,1.00
2022-09-09T10:08:26.720Z,0.98
2022-09-09T10:09:34.199Z,1.10
2022-09-09T10:10:58.887Z,1.20
2022-09-09T10:12:10.383Z,0.75
2022-09-09T10:13:55.878Z,0.80
2022-09-09T10:15:15.381Z,0.95
2022-09-09T10:16:38.135Z,0.73
2022-09-09T10:18:23.575Z,0.77
2022-09-09T10:19:34.606Z,0.95
2022-09-09T10:21:01.361Z,1.00
2022-09-09T10:22:11.012Z,1.00
2022-09-09T10:23:54.499Z,1.20
2022-09-09T10:25:23.559Z,1.00
2022-09-09T10:26:43.098Z,0.82
2022-09-09T10:28:26.742Z,1.30
2022-09-09T10:29:34.226Z,1.08
2022-09-09T10:31:00.770Z,0.90
2022-09-09T10:32:22.740Z,1.20
2022-09-09T10:33:37.394Z,1.10
2022-09-09T10:34:59.889Z,1.00
2022-09-09T10:36:19.991Z,0.90
2022-09-09T10:37:23.570Z,1.30
2022-09-09T10:38:42.224Z,1.00
2022-09-09T10:39:44.063Z,1.42
2022-09-09T10:40:56.382Z,1.10
2022-09-09T10:42:10.901Z,1.05
2022-09-09T10:43:34.579Z,1.20
2022-09-09T10:44:51.252Z,1.30
2022-09-09T10:45:58.917Z,1.10
2022-09-09T10:47:18.706Z,1.25
2022-09-09T10:48:48.437Z,0.95
2022-09-09T10:49:50.689Z,1.00
2022-09-09T10:51:13.510Z,1.60
2022-09-09T10:52:19.056Z,1.27
2022-09-09T10:53:29.712Z,0.90
2022-09-09T10:54:52.637Z,1.00
2022-09-09T10:56:16.140Z,1.05
2022-09-09T10:57:35.122Z,1.00
2022-09-09T10:58:43.676Z,0.90
2022-09-09T10:59:52.158Z,0.80
2022-09-09T11:01:03.411Z,1.00
2022-09-09T11:02:07.706Z,1.10
2022-09-09T11:03:20.684Z,1.00
2022-09-09T11:04:33.508Z,1.20
2022-09-09T11:05:46.569Z,1.40
2022-09-09T11:06:54.503Z,1.38
2022-09-09T11:07:59.232Z,1.00
2022-09-09T11:09:04.568Z,0.90
2022-09-09T11:10:20.855Z,1.00
2022-09-09T11:11:40.241Z,1.00
2022-09-09T11:12:44.244Z,1.10
2022-09-09T11:13:49.712Z,1.05
2022-09-09T11:15:06.081Z,0.90
2022-09-09T11:16:38.218Z,1.20
2022-09-09T11:18:02.278Z,1.00
2022-09-09T11:19:35.111Z,1.30
2022-09-09T11:20:37.778Z,1.13
2022-09-09T11:21:46.909Z,0.80
2022-09-09T11:22:55.567Z,1.45
2022-09-09T11:24:10.068Z,1.27
2022-09-09T11:25:27.385Z,1.20
2022-09-09T11:26:40.078Z,1.80
2022-09-09T11:28:03.883Z,1.50
2022-09-09T11:29:05.547Z,1.20
2022-09-09T11:30:44.077Z,1.30
2022-09-09T11:32:07.137Z,1.00
2022-09-09T11:33:29.402Z,1.05
2022-09-09T11:35:14.728Z,1.27
2022-09-09T11:36:28.487Z,1.20
2022-09-09T11:37:39.117Z,1.20
2022-09-09T11:38:52.245Z,0.80
2022-09-09T11:40:15.460Z,0.73
2022-09-09T11:41:21.622Z,1.00
2022-09-09T11:42:25.642Z,0.88
2022-09-09T11:43:48.928Z,0.95
2022-09-09T11:44:51.391Z,0.80
2022-09-09T11:46:00.513Z,1.10
2022-09-09T11:47:03.321Z,1.05
2022-09-09T11:48:06.949Z,0.82
2022-09-09T11:49:32.402Z,0.80
2022-09-09T11:50:37.584Z,0.82
2022-09-09T11:51:39.454Z,1.05
2022-09-09T11:52:46.637Z,0.60
2022-09-09T11:53:53.920Z,0.70
2022-09-09T11:54:57.351Z,0.98
2022-09-09T11:56:07.238Z,0.50
2022-09-09T11:57:33.205Z,0.75
2022-09-09T11:58:41.701Z,0.52
2022-09-09T11:59:53.232Z,0.60
2022-09-09T12:00:55.099Z,0.60
2022-09-09T12:02:03.199Z,0.60
2022-09-09T12:03:39.966Z,0.60
2022-09-09T12:05:09.708Z,0.75
2022-09-09T12:06:26.688Z,0.32
2022-09-09T12:07:33.966Z,0.50
2022-09-09T12:08:37.969Z,0.68
2022-09-09T12:09:53.567Z,0.50
2022-09-09T12:10:57.898Z,0.30
2022-09-09T12:12:13.162Z,0.40
2022-09-09T12:13:24.799Z,0.32
2022-09-09T12:14:42.118Z,0.40
2022-09-09T12:15:51.105Z,0.30
2022-09-09T12:16:52.943Z,0.50
2022-09-09T12:18:02.677Z,0.30
2022-09-09T12:19:17.667Z,0.40
2022-09-09T12:20:32.407Z,0.50
2022-09-09T12:21:59.447Z,0.55
2022-09-09T12:23:22.333Z,0.40
2022-09-09T12:24:37.561Z,0.65
2022-09-09T12:26:12.918Z,0.68
2022-09-09T12:27:34.463Z,0.40
2022-09-09T12:28:58.238Z,0.47
2022-09-09T12:30:08.946Z,0.40
2022-09-09T12:31:25.585Z,0.50
2022-09-09T12:32:29.941Z,0.50
2022-09-09T12:33:37.124Z,0.60
2022-09-09T12:34:45.068Z,0.50
2022-09-09T12:35:57.936Z,0.70
2022-09-09T12:37:06.924Z,0.60
2022-09-09T12:38:15.584Z,0.50
2022-09-09T12:39:22.201Z,0.50
2022-09-09T12:40:29.427Z,0.55
2022-09-09T12:41:31.193Z,0.47
2022-09-09T12:42:41.022Z,0.70
2022-09-09T12:43:43.359Z,0.52
2022-09-09T12:45:03.871Z,0.80
2022-09-09T12:46:22.773Z,0.60
2022-09-09T12:47:53.360Z,0.60
2022-09-09T12:48:55.482Z,0.57
2022-09-09T12:49:57.529Z,0.63
2022-09-09T12:51:00.480Z,0.77
2022-09-09T12:52:27.680Z,0.50
2022-09-09T12:53:37.575Z,0.80
2022-09-09T12:54:45.031Z,0.77
2022-09-09T12:56:14.246Z,0.85
2022-09-09T12:57:16.343Z,0.50
2022-09-09T12:58:20.194Z,0.75
2022-09-09T12:59:47.201Z,0.70
2022-09-09T13:00:53.914Z,0.70
2022-09-09T13:01:59.833Z,0.70
2022-09-09T13:03:15.016Z,0.60
2022-09-09T13:04:23.016Z,0.68
2022-09-09T13:05:35.599Z,0.50
2022-09-09T13:06:37.326Z,0.77
2022-09-09T13:07:39.008Z,0.70
2022-09-09T13:08:41.731Z,0.70
2022-09-09T13:09:44.942Z,0.55
2022-09-09T13:11:03.319Z,0.70
2022-09-09T13:12:06.940Z,0.60
2022-09-09T13:13:21.590Z,0.60
2022-09-09T13:14:38.375Z,0.73
2022-09-09T13:15:40.315Z,0.90
2022-09-09T13:16:43.128Z,0.60
2022-09-09T13:17:52.630Z,0.52
2022-09-09T13:18:54.526Z,0.70
2022-09-09T13:19:57.378Z,0.75
2022-09-09T13:20:59.345Z,0.80
2022-09-09T13:22:01.223Z,0.60
2022-09-09T13:23:03.261Z,0.70
2022-09-09T13:24:08.458Z,0.70
2022-09-09T13:25:10.999Z,0.80
2022-09-09T13:26:27.451Z,0.73
2022-09-09T13:27:40.548Z,0.70
2022-09-09T13:28:43.296Z,0.80
2022-09-09T13:29:55.912Z,0.70
2022-09-09T13:31:08.003Z,0.75
2022-09-09T13:32:19.804Z,1.42
2022-09-09T13:33:24.110Z,0.52
2022-09-09T13:34:36.575Z,0.70
2022-09-09T13:35:49.134Z,0.70
2022-09-09T13:36:50.843Z,0.60
2022-09-09T13:37:52.589Z,1.02
2022-09-09T13:39:00.481Z,0.65
2022-09-09T13:40:03.840Z,0.80
2022-09-09T13:41:11.102Z,0.55
2022-09-09T13:42:26.383Z,0.50
2022-09-09T13:43:29.479Z,0.75
2022-09-09T13:44:40.178Z,0.65
2022-09-09T13:45:41.910Z,0.40
2022-09-09T13:46:44.089Z,0.70
2022-09-09T13:47:47.177Z,0.50
2022-09-09T13:48:59.817Z,0.50
2022-09-09T13:50:21.925Z,0.75
2022-09-09T13:51:47.792Z,0.70
2022-09-09T13:52:52.384Z,0.70
2022-09-09T13:53:54.087Z,0.52
2022-09-09T13:54:56.621Z,0.75
2022-09-09T13:55:59.374Z,0.70
2022-09-09T13:57:02.568Z,0.80
2022-09-09T13:58:06.194Z,0.70
2022-09-09T13:59:13.335Z,0.80
2022-09-09T14:00:15.390Z,0.57
2022-09-09T14:01:17.252Z,0.77
2022-09-09T14:02:19.981Z,0.70
2022-09-09T14:03:22.380Z,1.30
2022-09-09T14:04:24.142Z,0.77
2022-09-09T14:05:26.119Z,0.80
2022-09-09T14:06:28.481Z,0.70
2022-09-09T14:07:30.332Z,0.70
2022-09-09T14:08:38.201Z,0.80
2022-09-09T14:09:41.199Z,0.65
2022-09-09T14:10:43.140Z,0.50
2022-09-09T14:11:46.993Z,0.60
2022-09-09T14:12:48.808Z,0.90
2022-09-09T14:13:50.992Z,0.63
2022-09-09T14:14:52.701Z,0.63
2022-09-09T14:15:54.653Z,0.80
2022-09-09T14:16:56.371Z,1.02
2022-09-09T14:17:59.920Z,0.90
2022-09-09T14:19:02.041Z,1.77
2022-09-09T14:20:08.673Z,1.67
2022-09-09T14:21:10.497Z,0.70
2022-09-09T14:22:12.185Z,2.55
2022-09-09T14:23:14.219Z,0.85
2022-09-09T14:24:15.908Z,0.50
2022-09-09T14:25:18.181Z,0.50
2022-09-09T14:26:22.820Z,0.80
2022-09-09T14:27:26.835Z,0.52
2022-09-09T14:28:52.108Z,0.77
2022-09-09T14:29:51.534Z,0.77
2022-09-09T14:30:53.259Z,0.73
2022-09-09T14:31:55.024Z,0.63
2022-09-09T14:32:56.663Z,0.70
2022-09-09T14:33:58.535Z,0.50
2022-09-09T14:35:00.390Z,0.80
2022-09-09T14:36:04.406Z,0.52
2022-09-09T14:37:06.126Z,0.70
2022-09-09T14:38:08.348Z,0.70
2022-09-09T14:39:10.025Z,0.70
2022-09-09T14:40:12.436Z,0.75
2022-09-09T14:41:20.604Z,0.80
2022-09-09T14:42:23.116Z,0.70
2022-09-09T14:43:25.225Z,1.08
2022-09-09T14:44:27.035Z,0.77
2022-09-09T14:45:29.368Z,0.93
2022-09-09T14:46:32.019Z,0.85
2022-09-09T14:47:33.752Z,0.73
2022-09-09T14:48:36.259Z,0.90
2022-09-09T14:49:39.852Z,2.63
2022-09-09T14:50:43.778Z,1.20
2022-09-09T14:51:45.432Z,0.60
2022-09-09T14:52:47.822Z,1.17
2022-09-09T14:53:53.819Z,0.50
2022-09-09T14:54:56.208Z,1.67
2022-09-09T14:56:05.580Z,0.88
2022-09-09T14:57:07.258Z,0.47
2022-09-09T14:58:08.964Z,0.88
2022-09-09T14:59:10.700Z,0.70
2022-09-09T15:00:14.252Z,0.52
2022-09-09T15:01:19.056Z,0.70
2022-09-09T15:02:20.949Z,0.63
2022-09-09T15:03:24.067Z,0.60